sensor_id;sensor_type;location;lat;lon;timestamp;pressure;altitude;pressure_sealevel;temperature;humidity
79242;BME280;68670;48.720;9.118;2023-07-20T00:02:03;96736.88;;;18.89;47.84
79242;BME280;68670;48.720;9.118;2023-07-20T00:04:30;96735.81;;;18.85;47.77
79242;BME280;68670;48.720;9.118;2023-07-20T00:06:57;96741.69;;;18.83;47.96
79242;BME280;68670;48.720;9.118;2023-07-20T00:09:26;96732.84;;;18.81;47.79
79242;BME280;68670;48.720;9.118;2023-07-20T00:11:52;96727.13;;;18.72;47.84
79242;BME280;68670;48.720;9.118;2023-07-20T00:14:20;96734.09;;;18.70;48.30
79242;BME280;68670;48.720;9.118;2023-07-20T00:16:46;96744.16;;;18.66;48.33
79242;BME280;68670;48.720;9.118;2023-07-20T00:19:19;96732.56;;;18.59;48.74
79242;BME280;68670;48.720;9.118;2023-07-20T00:21:47;96737.34;;;18.53;48.87
79242;BME280;68670;48.720;9.118;2023-07-20T00:24:14;96726.34;;;18.48;49.02
79242;BME280;68670;48.720;9.118;2023-07-20T00:26:43;96739.91;;;18.50;49.64
79242;BME280;68670;48.720;9.118;2023-07-20T00:29:13;96736.97;;;18.41;49.67
79242;BME280;68670;48.720;9.118;2023-07-20T00:31:41;96728.13;;;18.39;49.72
79242;BME280;68670;48.720;9.118;2023-07-20T00:34:08;96725.63;;;18.37;49.64
79242;BME280;68670;48.720;9.118;2023-07-20T00:36:36;96731.31;;;18.27;49.74
79242;BME280;68670;48.720;9.118;2023-07-20T00:39:04;96733.25;;;18.27;49.82
79242;BME280;68670;48.720;9.118;2023-07-20T00:41:29;96726.81;;;18.31;49.60
79242;BME280;68670;48.720;9.118;2023-07-20T00:43:55;96719.63;;;18.30;50.01
79242;BME280;68670;48.720;9.118;2023-07-20T00:46:24;96718.31;;;18.23;50.32
79242;BME280;68670;48.720;9.118;2023-07-20T00:48:53;96721.41;;;18.21;49.84
79242;BME280;68670;48.720;9.118;2023-07-20T00:51:25;96732.47;;;18.21;49.33
79242;BME280;68670;48.720;9.118;2023-07-20T00:53:53;96737.19;;;18.21;48.92
79242;BME280;68670;48.720;9.118;2023-07-20T00:56:21;96727.09;;;18.11;49.39
79242;BME280;68670;48.720;9.118;2023-07-20T00:58:49;96729.31;;;18.09;49.68
79242;BME280;68670;48.720;9.118;2023-07-20T01:01:17;96733.25;;;18.03;50.15
79242;BME280;68670;48.720;9.118;2023-07-20T01:03:45;96749.94;;;17.98;50.32
79242;BME280;68670;48.720;9.118;2023-07-20T01:06:20;96744.16;;;17.94;50.21
79242;BME280;68670;48.720;9.118;2023-07-20T01:09:02;96740.91;;;17.87;50.79
79242;BME280;68670;48.720;9.118;2023-07-20T01:11:41;96742.06;;;17.86;50.74
79242;BME280;68670;48.720;9.118;2023-07-20T01:14:08;96739.09;;;17.77;50.43
79242;BME280;68670;48.720;9.118;2023-07-20T01:16:34;96741.31;;;17.75;50.85
79242;BME280;68670;48.720;9.118;2023-07-20T01:19:02;96737.78;;;17.70;50.96
79242;BME280;68670;48.720;9.118;2023-07-20T01:32:23;96750.88;;;17.25;55.12
79242;BME280;68670;48.720;9.118;2023-07-20T01:34:52;96742.56;;;17.25;55.72
79242;BME280;68670;48.720;9.118;2023-07-20T01:37:18;96737.63;;;17.22;56.67
79242;BME280;68670;48.720;9.118;2023-07-20T01:39:52;96740.19;;;17.13;58.84
79242;BME280;68670;48.720;9.118;2023-07-20T01:42:25;96745.50;;;17.05;54.42
79242;BME280;68670;48.720;9.118;2023-07-20T01:44:53;96741.16;;;16.94;57.32
79242;BME280;68670;48.720;9.118;2023-07-20T01:47:19;96746.13;;;16.97;56.93
79242;BME280;68670;48.720;9.118;2023-07-20T01:49:46;96735.06;;;16.97;54.68
79242;BME280;68670;48.720;9.118;2023-07-20T01:52:12;96729.44;;;17.07;53.95
79242;BME280;68670;48.720;9.118;2023-07-20T01:54:39;96737.16;;;17.15;53.46
79242;BME280;68670;48.720;9.118;2023-07-20T01:57:07;96735.47;;;17.19;52.91
79242;BME280;68670;48.720;9.118;2023-07-20T01:59:34;96737.97;;;17.16;53.25
79242;BME280;68670;48.720;9.118;2023-07-20T02:02:02;96731.59;;;17.15;53.37
79242;BME280;68670;48.720;9.118;2023-07-20T02:04:27;96729.38;;;17.17;52.98
79242;BME280;68670;48.720;9.118;2023-07-20T02:06:55;96737.72;;;17.12;53.32
79242;BME280;68670;48.720;9.118;2023-07-20T02:09:20;96741.03;;;17.14;53.38
79242;BME280;68670;48.720;9.118;2023-07-20T02:11:48;96748.78;;;17.12;53.70
79242;BME280;68670;48.720;9.118;2023-07-20T02:14:15;96740.19;;;17.13;53.04
79242;BME280;68670;48.720;9.118;2023-07-20T02:16:40;96741.34;;;17.07;53.40
79242;BME280;68670;48.720;9.118;2023-07-20T02:19:06;96736.63;;;17.08;53.25
79242;BME280;68670;48.720;9.118;2023-07-20T02:21:32;96734.47;;;17.00;53.76
79242;BME280;68670;48.720;9.118;2023-07-20T02:24:00;96737.22;;;17.05;53.48
79242;BME280;68670;48.720;9.118;2023-07-20T02:26:25;96739.47;;;16.98;53.86
79242;BME280;68670;48.720;9.118;2023-07-20T02:28:50;96734.22;;;16.96;54.05
79242;BME280;68670;48.720;9.118;2023-07-20T02:31:18;96738.38;;;16.94;53.88
79242;BME280;68670;48.720;9.118;2023-07-20T02:33:43;96741.72;;;16.91;54.42
79242;BME280;68670;48.720;9.118;2023-07-20T02:36:11;96735.16;;;16.87;54.29
79242;BME280;68670;48.720;9.118;2023-07-20T02:38:36;96731.28;;;16.83;54.57
79242;BME280;68670;48.720;9.118;2023-07-20T02:41:02;96739.03;;;16.86;54.37
79242;BME280;68670;48.720;9.118;2023-07-20T02:43:27;96746.28;;;16.76;54.94
79242;BME280;68670;48.720;9.118;2023-07-20T02:45:53;96742.13;;;16.74;55.00
79242;BME280;68670;48.720;9.118;2023-07-20T02:48:19;96740.47;;;16.73;55.00
79242;BME280;68670;48.720;9.118;2023-07-20T02:50:44;96742.97;;;16.74;54.97
79242;BME280;68670;48.720;9.118;2023-07-20T02:53:11;96743.78;;;16.75;54.68
79242;BME280;68670;48.720;9.118;2023-07-20T02:55:39;96761.22;;;16.75;54.97
79242;BME280;68670;48.720;9.118;2023-07-20T02:58:04;96757.34;;;16.76;54.81
79242;BME280;68670;48.720;9.118;2023-07-20T03:00:32;96758.72;;;16.74;55.18
79242;BME280;68670;48.720;9.118;2023-07-20T03:02:57;96751.25;;;16.74;54.71
79242;BME280;68670;48.720;9.118;2023-07-20T03:05:23;96754.28;;;16.78;54.66
79242;BME280;68670;48.720;9.118;2023-07-20T03:07:52;96751.84;;;16.66;55.23
79242;BME280;68670;48.720;9.118;2023-07-20T03:10:17;96746.84;;;16.63;55.34
79242;BME280;68670;48.720;9.118;2023-07-20T03:12:43;96757.91;;;16.63;55.66
79242;BME280;68670;48.720;9.118;2023-07-20T03:15:08;96755.16;;;16.63;55.67
79242;BME280;68670;48.720;9.118;2023-07-20T03:17:34;96756.28;;;16.67;55.15
79242;BME280;68670;48.720;9.118;2023-07-20T03:20:01;96754.31;;;16.63;55.62
79242;BME280;68670;48.720;9.118;2023-07-20T03:22:28;96759.31;;;16.61;55.80
79242;BME280;68670;48.720;9.118;2023-07-20T03:24:53;96761.53;;;16.59;56.36
79242;BME280;68670;48.720;9.118;2023-07-20T03:27:18;96769.53;;;16.60;56.04
79242;BME280;68670;48.720;9.118;2023-07-20T03:29:46;96757.38;;;16.61;55.42
79242;BME280;68670;48.720;9.118;2023-07-20T03:32:16;96765.41;;;16.58;55.85
79242;BME280;68670;48.720;9.118;2023-07-20T03:34:41;96764.59;;;16.57;56.62
79242;BME280;68670;48.720;9.118;2023-07-20T03:37:07;96771.84;;;16.48;57.23
79242;BME280;68670;48.720;9.118;2023-07-20T03:39:34;96770.19;;;16.47;56.75
79242;BME280;68670;48.720;9.118;2023-07-20T03:42:02;96765.22;;;16.44;56.72
79242;BME280;68670;48.720;9.118;2023-07-20T03:44:27;96769.09;;;16.43;57.07
79242;BME280;68670;48.720;9.118;2023-07-20T03:46:53;96757.22;;;16.42;56.47
79242;BME280;68670;48.720;9.118;2023-07-20T03:49:18;96762.75;;;16.42;56.66
79242;BME280;68670;48.720;9.118;2023-07-20T03:51:44;96769.38;;;16.36;56.92
79242;BME280;68670;48.720;9.118;2023-07-20T03:54:09;96765.78;;;16.41;56.99
79242;BME280;68670;48.720;9.118;2023-07-20T03:56:36;96759.72;;;16.39;56.82
79242;BME280;68670;48.720;9.118;2023-07-20T03:59:02;96770.75;;;16.44;56.73
79242;BME280;68670;48.720;9.118;2023-07-20T04:01:27;96764.13;;;16.40;57.21
79242;BME280;68670;48.720;9.118;2023-07-20T04:03:52;96768.03;;;16.29;57.81
79242;BME280;68670;48.720;9.118;2023-07-20T04:06:20;96770.47;;;16.40;57.45
79242;BME280;68670;48.720;9.118;2023-07-20T04:08:48;96775.19;;;16.40;57.57
79242;BME280;68670;48.720;9.118;2023-07-20T04:11:13;96774.31;;;16.50;56.89
79242;BME280;68670;48.720;9.118;2023-07-20T04:13:41;96783.44;;;16.50;57.12
79242;BME280;68670;48.720;9.118;2023-07-20T04:16:06;96783.19;;;16.41;57.74
79242;BME280;68670;48.720;9.118;2023-07-20T04:18:31;96782.63;;;16.44;57.51
79242;BME280;68670;48.720;9.118;2023-07-20T04:20:57;96781.25;;;16.47;57.21
79242;BME280;68670;48.720;9.118;2023-07-20T04:23:24;96786.75;;;16.52;57.49
79242;BME280;68670;48.720;9.118;2023-07-20T04:25:51;96781.44;;;16.61;57.32
79242;BME280;68670;48.720;9.118;2023-07-20T04:28:19;96786.69;;;16.67;57.36
79242;BME280;68670;48.720;9.118;2023-07-20T04:30:44;96788.34;;;16.68;56.74
79242;BME280;68670;48.720;9.118;2023-07-20T04:33:09;96785.53;;;16.78;56.50
79242;BME280;68670;48.720;9.118;2023-07-20T04:35:53;96785.50;;;16.84;56.38
79242;BME280;68670;48.720;9.118;2023-07-20T04:38:21;96783.22;;;16.91;56.48
79242;BME280;68670;48.720;9.118;2023-07-20T04:40:49;96786.53;;;16.93;56.82
79242;BME280;68670;48.720;9.118;2023-07-20T04:43:18;96781.53;;;16.95;56.07
79242;BME280;68670;48.720;9.118;2023-07-20T04:45:46;96782.34;;;17.00;56.38
79242;BME280;68670;48.720;9.118;2023-07-20T04:48:13;96780.94;;;17.03;56.22
79242;BME280;68670;48.720;9.118;2023-07-20T04:50:43;96781.50;;;17.05;56.37
79242;BME280;68670;48.720;9.118;2023-07-20T04:53:12;96786.44;;;17.08;56.47
79242;BME280;68670;48.720;9.118;2023-07-20T04:55:38;96782.28;;;17.10;56.27
79242;BME280;68670;48.720;9.118;2023-07-20T04:58:04;96779.25;;;17.07;56.36
79242;BME280;68670;48.720;9.118;2023-07-20T05:00:31;96790.31;;;17.12;56.24
79242;BME280;68670;48.720;9.118;2023-07-20T05:02:56;96786.38;;;17.18;55.68
79242;BME280;68670;48.720;9.118;2023-07-20T05:05:22;96791.56;;;17.25;55.95
79242;BME280;68670;48.720;9.118;2023-07-20T05:07:47;96791.34;;;17.21;56.06
79242;BME280;68670;48.720;9.118;2023-07-20T05:10:13;96787.69;;;17.26;55.47
79242;BME280;68670;48.720;9.118;2023-07-20T05:12:38;96789.03;;;17.33;55.36
79242;BME280;68670;48.720;9.118;2023-07-20T05:15:04;96784.84;;;17.36;55.94
79242;BME280;68670;48.720;9.118;2023-07-20T05:17:32;96790.09;;;17.37;55.86
79242;BME280;68670;48.720;9.118;2023-07-20T05:20:02;96794.25;;;17.40;56.20
79242;BME280;68670;48.720;9.118;2023-07-20T05:22:29;96786.22;;;17.38;55.51
79242;BME280;68670;48.720;9.118;2023-07-20T05:24:54;96787.34;;;17.37;55.68
79242;BME280;68670;48.720;9.118;2023-07-20T05:27:20;96788.78;;;17.30;56.01
79242;BME280;68670;48.720;9.118;2023-07-20T05:29:46;96789.28;;;17.37;56.14
79242;BME280;68670;48.720;9.118;2023-07-20T05:32:12;96792.84;;;17.42;55.88
79242;BME280;68670;48.720;9.118;2023-07-20T05:34:37;96792.28;;;17.40;55.73
79242;BME280;68670;48.720;9.118;2023-07-20T05:37:07;96792.59;;;17.39;56.35
79242;BME280;68670;48.720;9.118;2023-07-20T05:39:37;96786.16;;;17.49;55.89
79242;BME280;68670;48.720;9.118;2023-07-20T05:42:03;96783.09;;;17.50;55.78
79242;BME280;68670;48.720;9.118;2023-07-20T05:44:28;96782.72;;;17.57;56.02
79242;BME280;68670;48.720;9.118;2023-07-20T05:46:55;96783.25;;;17.59;55.50
79242;BME280;68670;48.720;9.118;2023-07-20T05:49:21;96788.81;;;17.59;55.70
79242;BME280;68670;48.720;9.118;2023-07-20T05:51:46;96783.19;;;17.74;55.36
79242;BME280;68670;48.720;9.118;2023-07-20T05:54:17;96775.66;;;17.79;54.81
79242;BME280;68670;48.720;9.118;2023-07-20T05:56:43;96786.47;;;17.76;55.39
79242;BME280;68670;48.720;9.118;2023-07-20T05:59:08;96786.97;;;17.83;54.79
79242;BME280;68670;48.720;9.118;2023-07-20T06:01:33;96790.31;;;17.80;55.52
79242;BME280;68670;48.720;9.118;2023-07-20T06:04:01;96788.09;;;17.82;55.27
79242;BME280;68670;48.720;9.118;2023-07-20T06:06:28;96797.22;;;17.83;55.74
79242;BME280;68670;48.720;9.118;2023-07-20T06:08:56;96796.66;;;17.86;55.06
79242;BME280;68670;48.720;9.118;2023-07-20T06:11:27;96799.41;;;17.86;55.53
79242;BME280;68670;48.720;9.118;2023-07-20T06:13:55;96795.75;;;17.90;56.02
79242;BME280;68670;48.720;9.118;2023-07-20T06:16:20;96792.88;;;18.00;55.56
79242;BME280;68670;48.720;9.118;2023-07-20T06:18:46;96795.50;;;18.16;56.29
79242;BME280;68670;48.720;9.118;2023-07-20T06:21:12;96796.91;;;18.13;55.53
79242;BME280;68670;48.720;9.118;2023-07-20T06:23:37;96794.91;;;18.19;55.33
79242;BME280;68670;48.720;9.118;2023-07-20T06:26:02;96796.53;;;18.20;55.62
79242;BME280;68670;48.720;9.118;2023-07-20T06:28:27;96793.72;;;18.25;55.65
79242;BME280;68670;48.720;9.118;2023-07-20T06:31:01;96796.97;;;18.32;56.89
79242;BME280;68670;48.720;9.118;2023-07-20T06:33:27;96800.31;;;18.29;55.94
79242;BME280;68670;48.720;9.118;2023-07-20T06:35:55;96789.72;;;18.36;55.25
79242;BME280;68670;48.720;9.118;2023-07-20T06:38:22;96794.91;;;18.42;55.71
79242;BME280;68670;48.720;9.118;2023-07-20T06:40:50;96789.00;;;18.49;55.09
79242;BME280;68670;48.720;9.118;2023-07-20T06:43:16;96788.47;;;18.47;56.30
79242;BME280;68670;48.720;9.118;2023-07-20T06:45:43;96788.38;;;18.52;55.65
79242;BME280;68670;48.720;9.118;2023-07-20T06:48:09;96790.25;;;18.62;54.89
79242;BME280;68670;48.720;9.118;2023-07-20T06:50:36;96789.41;;;18.61;55.20
79242;BME280;68670;48.720;9.118;2023-07-20T06:53:01;96793.50;;;18.69;55.37
79242;BME280;68670;48.720;9.118;2023-07-20T06:55:31;96793.72;;;18.72;55.49
79242;BME280;68670;48.720;9.118;2023-07-20T06:57:56;96803.03;;;18.82;54.94
79242;BME280;68670;48.720;9.118;2023-07-20T07:00:22;96798.31;;;18.82;55.31
79242;BME280;68670;48.720;9.118;2023-07-20T07:02:47;96798.47;;;18.91;54.97
79242;BME280;68670;48.720;9.118;2023-07-20T07:05:12;96794.72;;;19.00;54.77
79242;BME280;68670;48.720;9.118;2023-07-20T07:07:41;96794.34;;;19.07;53.88
79242;BME280;68670;48.720;9.118;2023-07-20T07:10:07;96792.25;;;18.99;53.33
79242;BME280;68670;48.720;9.118;2023-07-20T07:12:32;96788.41;;;18.95;52.21
79242;BME280;68670;48.720;9.118;2023-07-20T07:14:58;96792.84;;;18.96;52.44
79242;BME280;68670;48.720;9.118;2023-07-20T07:17:25;96790.66;;;18.93;52.86
79242;BME280;68670;48.720;9.118;2023-07-20T07:19:52;96786.16;;;18.97;53.26
79242;BME280;68670;48.720;9.118;2023-07-20T07:22:20;96787.16;;;19.06;52.62
79242;BME280;68670;48.720;9.118;2023-07-20T07:24:48;96786.31;;;19.05;52.63
79242;BME280;68670;48.720;9.118;2023-07-20T07:27:16;96779.94;;;19.05;53.29
79242;BME280;68670;48.720;9.118;2023-07-20T07:29:42;96784.91;;;19.08;52.57
79242;BME280;68670;48.720;9.118;2023-07-20T07:32:10;96777.16;;;19.05;53.33
79242;BME280;68670;48.720;9.118;2023-07-20T07:34:36;96776.56;;;19.08;53.14
79242;BME280;68670;48.720;9.118;2023-07-20T07:37:02;96784.31;;;19.11;53.31
79242;BME280;68670;48.720;9.118;2023-07-20T07:39:30;96775.38;;;19.14;52.26
79242;BME280;68670;48.720;9.118;2023-07-20T07:41:56;96780.81;;;19.19;52.64
79242;BME280;68670;48.720;9.118;2023-07-20T07:44:22;96774.53;;;19.32;52.55
79242;BME280;68670;48.720;9.118;2023-07-20T07:46:47;96780.53;;;19.39;51.79
79242;BME280;68670;48.720;9.118;2023-07-20T07:49:14;96773.63;;;19.37;51.31
79242;BME280;68670;48.720;9.118;2023-07-20T07:51:39;96780.69;;;19.29;52.26
79242;BME280;68670;48.720;9.118;2023-07-20T07:54:07;96769.88;;;19.28;51.57
79242;BME280;68670;48.720;9.118;2023-07-20T07:56:32;96772.13;;;19.44;50.46
79242;BME280;68670;48.720;9.118;2023-07-20T07:58:57;96777.22;;;19.37;50.27
79242;BME280;68670;48.720;9.118;2023-07-20T08:01:23;96782.19;;;19.40;50.46
79242;BME280;68670;48.720;9.118;2023-07-20T08:03:48;96771.97;;;19.55;49.90
79242;BME280;68670;48.720;9.118;2023-07-20T08:06:16;96780.34;;;19.50;49.33
79242;BME280;68670;48.720;9.118;2023-07-20T08:08:44;96786.69;;;19.36;49.36
79242;BME280;68670;48.720;9.118;2023-07-20T08:11:11;96781.94;;;19.56;50.20
79242;BME280;68670;48.720;9.118;2023-07-20T08:13:37;96780.28;;;19.55;51.27
79242;BME280;68670;48.720;9.118;2023-07-20T08:16:02;96775.69;;;19.64;50.07
79242;BME280;68670;48.720;9.118;2023-07-20T08:18:28;96774.94;;;19.77;48.11
79242;BME280;68670;48.720;9.118;2023-07-20T08:20:54;96777.41;;;19.78;47.69
79242;BME280;68670;48.720;9.118;2023-07-20T08:23:20;96761.16;;;19.99;46.79
79242;BME280;68670;48.720;9.118;2023-07-20T08:25:45;96775.19;;;20.22;47.50
79242;BME280;68670;48.720;9.118;2023-07-20T08:28:13;96760.41;;;20.40;47.22
79242;BME280;68670;48.720;9.118;2023-07-20T08:30:46;96761.81;;;20.78;48.28
79242;BME280;68670;48.720;9.118;2023-07-20T08:33:16;96766.03;;;21.12;46.75
79242;BME280;68670;48.720;9.118;2023-07-20T08:35:47;96769.59;;;21.04;44.79
79242;BME280;68670;48.720;9.118;2023-07-20T08:38:13;96764.22;;;21.07;44.13
79242;BME280;68670;48.720;9.118;2023-07-20T08:40:45;96765.59;;;20.96;44.85
79242;BME280;68670;48.720;9.118;2023-07-20T08:43:14;96770.03;;;20.97;45.08
79242;BME280;68670;48.720;9.118;2023-07-20T08:45:42;96772.31;;;20.82;44.67
79242;BME280;68670;48.720;9.118;2023-07-20T08:48:08;96770.28;;;20.73;45.35
79242;BME280;68670;48.720;9.118;2023-07-20T08:50:36;96772.13;;;20.64;45.31
79242;BME280;68670;48.720;9.118;2023-07-20T08:53:02;96768.13;;;20.57;45.87
79242;BME280;68670;48.720;9.118;2023-07-20T08:55:29;96768.00;;;20.75;46.23
79242;BME280;68670;48.720;9.118;2023-07-20T08:57:55;96767.94;;;21.03;45.17
79242;BME280;68670;48.720;9.118;2023-07-20T09:00:21;96762.00;;;21.76;44.70
79242;BME280;68670;48.720;9.118;2023-07-20T09:02:50;96766.66;;;22.12;42.83
79242;BME280;68670;48.720;9.118;2023-07-20T09:05:23;96755.03;;;22.19;42.03
79242;BME280;68670;48.720;9.118;2023-07-20T09:07:52;96760.91;;;21.86;41.78
79242;BME280;68670;48.720;9.118;2023-07-20T09:10:21;96747.50;;;21.66;41.30
79242;BME280;68670;48.720;9.118;2023-07-20T09:12:47;96759.03;;;21.51;42.07
79242;BME280;68670;48.720;9.118;2023-07-20T09:15:12;96749.53;;;21.29;41.95
79242;BME280;68670;48.720;9.118;2023-07-20T09:17:38;96749.69;;;21.77;42.24
79242;BME280;68670;48.720;9.118;2023-07-20T09:20:04;96750.69;;;22.35;41.55
79242;BME280;68670;48.720;9.118;2023-07-20T09:22:33;96747.06;;;22.83;41.12
79242;BME280;68670;48.720;9.118;2023-07-20T09:24:59;96746.47;;;23.37;39.39
79242;BME280;68670;48.720;9.118;2023-07-20T09:27:40;96751.00;;;22.82;39.03
79242;BME280;68670;48.720;9.118;2023-07-20T09:30:06;96744.97;;;22.40;39.52
79242;BME280;68670;48.720;9.118;2023-07-20T09:32:43;96746.97;;;22.08;40.18
79242;BME280;68670;48.720;9.118;2023-07-20T09:35:16;96750.56;;;21.87;40.09
79242;BME280;68670;48.720;9.118;2023-07-20T09:38:02;96761.31;;;21.71;40.35
79242;BME280;68670;48.720;9.118;2023-07-20T09:40:27;96756.56;;;21.71;40.92
79242;BME280;68670;48.720;9.118;2023-07-20T09:42:55;96757.25;;;21.55;41.04
79242;BME280;68670;48.720;9.118;2023-07-20T09:45:30;96756.88;;;21.48;40.31
79242;BME280;68670;48.720;9.118;2023-07-20T09:48:03;96756.22;;;21.51;39.31
79242;BME280;68670;48.720;9.118;2023-07-20T09:50:32;96751.50;;;21.29;40.67
79242;BME280;68670;48.720;9.118;2023-07-20T09:53:01;96751.34;;;21.78;42.00
79242;BME280;68670;48.720;9.118;2023-07-20T09:55:28;96751.81;;;21.72;39.76
79242;BME280;68670;48.720;9.118;2023-07-20T09:57:54;96749.19;;;22.29;38.73
79242;BME280;68670;48.720;9.118;2023-07-20T10:00:23;96754.34;;;23.01;38.82
79242;BME280;68670;48.720;9.118;2023-07-20T10:02:52;96746.44;;;23.72;38.63
79242;BME280;68670;48.720;9.118;2023-07-20T10:05:17;96724.78;;;24.16;35.65
79242;BME280;68670;48.720;9.118;2023-07-20T10:07:48;96726.50;;;24.46;35.05
79242;BME280;68670;48.720;9.118;2023-07-20T10:10:16;96725.63;;;25.13;33.58
79242;BME280;68670;48.720;9.118;2023-07-20T10:12:47;96720.91;;;24.75;34.74
79242;BME280;68670;48.720;9.118;2023-07-20T10:17:59;96728.16;;;23.92;35.43
79242;BME280;68670;48.720;9.118;2023-07-20T10:20:27;96733.13;;;23.43;37.01
79242;BME280;68670;48.720;9.118;2023-07-20T10:22:53;96720.16;;;23.56;35.91
79242;BME280;68670;48.720;9.118;2023-07-20T10:25:20;96725.16;;;24.05;35.17
79242;BME280;68670;48.720;9.118;2023-07-20T10:27:48;96713.09;;;24.60;34.72
79242;BME280;68670;48.720;9.118;2023-07-20T10:30:13;96710.19;;;24.77;34.01
79242;BME280;68670;48.720;9.118;2023-07-20T10:32:42;96709.28;;;25.36;33.45
79242;BME280;68670;48.720;9.118;2023-07-20T10:35:18;96702.00;;;25.56;33.40
79242;BME280;68670;48.720;9.118;2023-07-20T10:38:00;96697.63;;;26.12;32.85
79242;BME280;68670;48.720;9.118;2023-07-20T10:40:31;96692.66;;;26.78;31.11
79242;BME280;68670;48.720;9.118;2023-07-20T10:43:19;96697.22;;;27.35;29.70
79242;BME280;68670;48.720;9.118;2023-07-20T10:45:53;96701.38;;;27.66;27.48
79242;BME280;68670;48.720;9.118;2023-07-20T10:48:23;96694.38;;;27.60;28.01
79242;BME280;68670;48.720;9.118;2023-07-20T10:51:11;96700.75;;;27.32;28.90
79242;BME280;68670;48.720;9.118;2023-07-20T10:53:39;96691.03;;;27.30;28.30
79242;BME280;68670;48.720;9.118;2023-07-20T10:56:12;96691.75;;;27.67;27.87
79242;BME280;68670;48.720;9.118;2023-07-20T10:58:40;96691.34;;;27.40;27.68
79242;BME280;68670;48.720;9.118;2023-07-20T11:01:06;96680.19;;;27.16;28.87
79242;BME280;68670;48.720;9.118;2023-07-20T11:03:38;96679.44;;;26.42;29.52
79242;BME280;68670;48.720;9.118;2023-07-20T11:11:22;96680.09;;;27.00;27.98
79242;BME280;68670;48.720;9.118;2023-07-20T11:13:56;96680.91;;;27.81;27.87
79242;BME280;68670;48.720;9.118;2023-07-20T11:16:43;96677.91;;;29.00;27.78
79242;BME280;68670;48.720;9.118;2023-07-20T11:19:21;96666.72;;;29.03;25.71
79242;BME280;68670;48.720;9.118;2023-07-20T11:21:56;96672.97;;;29.32;25.41
79242;BME280;68670;48.720;9.118;2023-07-20T11:24:22;96672.00;;;29.24;24.71
79242;BME280;68670;48.720;9.118;2023-07-20T11:26:50;96684.34;;;28.34;24.65
79242;BME280;68670;48.720;9.118;2023-07-20T11:29:19;96676.63;;;28.47;25.38
79242;BME280;68670;48.720;9.118;2023-07-20T11:31:48;96670.63;;;28.99;25.50
79242;BME280;68670;48.720;9.118;2023-07-20T11:34:16;96674.34;;;28.21;25.92
79242;BME280;68670;48.720;9.118;2023-07-20T11:36:44;96667.78;;;28.17;26.78
79242;BME280;68670;48.720;9.118;2023-07-20T11:39:13;96657.75;;;29.36;27.43
79242;BME280;68670;48.720;9.118;2023-07-20T11:41:49;96654.34;;;29.08;24.92
79242;BME280;68670;48.720;9.118;2023-07-20T11:44:19;96658.31;;;28.09;25.22
79242;BME280;68670;48.720;9.118;2023-07-20T11:46:51;96654.22;;;27.07;26.54
79242;BME280;68670;48.720;9.118;2023-07-20T11:49:16;96656.59;;;26.32;26.75
79242;BME280;68670;48.720;9.118;2023-07-20T11:51:42;96657.91;;;27.23;26.88
79242;BME280;68670;48.720;9.118;2023-07-20T11:54:08;96657.16;;;26.74;26.25
79242;BME280;68670;48.720;9.118;2023-07-20T11:56:34;96658.03;;;27.55;27.65
79242;BME280;68670;48.720;9.118;2023-07-20T11:58:59;96658.31;;;27.37;25.95
79242;BME280;68670;48.720;9.118;2023-07-20T12:01:29;96653.16;;;28.27;25.33
79242;BME280;68670;48.720;9.118;2023-07-20T12:03:59;96642.31;;;28.60;24.74
79242;BME280;68670;48.720;9.118;2023-07-20T12:06:30;96645.09;;;27.66;24.94
79242;BME280;68670;48.720;9.118;2023-07-20T12:08:58;96640.56;;;28.21;24.70
79242;BME280;68670;48.720;9.118;2023-07-20T12:11:35;96640.38;;;29.15;25.36
79242;BME280;68670;48.720;9.118;2023-07-20T12:14:02;96636.13;;;29.40;25.71
79242;BME280;68670;48.720;9.118;2023-07-20T12:16:31;96619.63;;;29.42;24.74
79242;BME280;68670;48.720;9.118;2023-07-20T12:19:14;96633.38;;;30.05;23.70
79242;BME280;68670;48.720;9.118;2023-07-20T12:21:41;96632.22;;;30.33;22.52
79242;BME280;68670;48.720;9.118;2023-07-20T12:24:10;96622.34;;;30.46;22.25
79242;BME280;68670;48.720;9.118;2023-07-20T12:26:36;96631.50;;;30.62;22.37
79242;BME280;68670;48.720;9.118;2023-07-20T12:29:03;96622.25;;;29.74;23.43
79242;BME280;68670;48.720;9.118;2023-07-20T12:31:29;96619.19;;;29.83;23.08
79242;BME280;68670;48.720;9.118;2023-07-20T12:33:57;96617.44;;;30.17;24.44
79242;BME280;68670;48.720;9.118;2023-07-20T12:36:29;96602.91;;;30.67;23.47
79242;BME280;68670;48.720;9.118;2023-07-20T12:38:56;96598.44;;;30.93;21.65
79242;BME280;68670;48.720;9.118;2023-07-20T12:41:24;96600.84;;;30.64;23.04
79242;BME280;68670;48.720;9.118;2023-07-20T12:43:49;96606.13;;;28.62;23.47
79242;BME280;68670;48.720;9.118;2023-07-20T12:46:17;96599.66;;;28.62;23.96
79242;BME280;68670;48.720;9.118;2023-07-20T12:48:43;96606.97;;;28.98;24.58
79242;BME280;68670;48.720;9.118;2023-07-20T12:51:09;96596.84;;;29.74;23.81
79242;BME280;68670;48.720;9.118;2023-07-20T12:53:37;96606.81;;;29.68;22.65
79242;BME280;68670;48.720;9.118;2023-07-20T12:56:05;96599.94;;;30.34;24.01
79242;BME280;68670;48.720;9.118;2023-07-20T12:58:30;96588.78;;;30.67;22.95
79242;BME280;68670;48.720;9.118;2023-07-20T13:00:58;96595.81;;;31.37;20.46
79242;BME280;68670;48.720;9.118;2023-07-20T13:03:23;96593.78;;;30.51;21.58
79242;BME280;68670;48.720;9.118;2023-07-20T13:05:51;96596.34;;;30.37;22.07
79242;BME280;68670;48.720;9.118;2023-07-20T13:08:19;96592.25;;;30.84;21.77
79242;BME280;68670;48.720;9.118;2023-07-20T13:10:47;96574.50;;;30.87;21.08
79242;BME280;68670;48.720;9.118;2023-07-20T13:13:14;96583.44;;;30.62;20.80
79242;BME280;68670;48.720;9.118;2023-07-20T13:15:43;96586.34;;;29.52;22.29
79242;BME280;68670;48.720;9.118;2023-07-20T13:18:11;96583.53;;;28.59;25.59
79242;BME280;68670;48.720;9.118;2023-07-20T13:20:39;96571.09;;;28.13;24.28
79242;BME280;68670;48.720;9.118;2023-07-20T13:23:04;96572.63;;;28.41;24.41